Time;durP1;ratioP1;P1;durP2;ratioP2;P2;SDS_P1;SDS_P2;PMS_P1;PMS_P2;Temp;Humidity;BMP_temperature;BMP_pressure;BME280_temperature;BME280_humidity;BME280_pressure;Samples;Min_cycle;Max_cycle;Signal;HPM_P1;HPM_P2
2022/01/12 00:01:14;;;;;;;159.13;45.15;;;;;;;;;;5062570;28;20376;-67
2022/01/12 00:03:41;;;;;;;151.20;46.40;;;;;;;;;;5062628;28;20048;-67
2022/01/12 00:06:07;;;;;;;162.18;46.97;;;;;;;;;;5057709;28;20053;-67
2022/01/12 00:08:33;;;;;;;162.50;45.78;;;;;;;;;;5048377;28;20079;-67
2022/01/12 00:11:00;;;;;;;148.23;44.70;;;;;;;;;;5065224;28;20559;-66
2022/01/12 00:13:26;;;;;;;167.10;48.63;;;;;;;;;;5064049;28;20072;-65
2022/01/12 00:15:52;;;;;;;162.50;46.67;;;;;;;;;;5061232;28;20087;-67
2022/01/12 00:18:18;;;;;;;157.88;45.60;;;;;;;;;;5056598;28;20259;-67
2022/01/12 00:20:44;;;;;;;154.32;47.42;;;;;;;;;;5049477;28;20067;-67
2022/01/12 00:23:10;;;;;;;159.02;46.53;;;;;;;;;;5058046;28;20040;-65
2022/01/12 00:25:57;;;;;;;162.90;48.47;;;;;;;;;;5057041;28;20032;-67
2022/01/12 00:33:53;;;;;;;176.60;46.35;;;;;;;;;;5063301;28;20047;-67
2022/01/12 00:36:19;;;;;;;168.55;47.58;;;;;;;;;;5058749;28;20048;-67
2022/01/12 00:38:45;;;;;;;175.00;48.15;;;;;;;;;;5053156;28;20491;-67
2022/01/12 00:41:11;;;;;;;158.18;46.70;;;;;;;;;;5050442;28;20037;-67
2022/01/12 00:43:42;;;;;;;159.60;45.72;;;;;;;;;;5048811;28;20078;-65
2022/01/12 00:46:08;;;;;;;160.55;47.53;;;;;;;;;;5047428;28;20048;-67
2022/01/12 00:48:36;;;;;;;154.27;46.78;;;;;;;;;;5053918;28;20041;-67
2022/01/12 00:51:02;;;;;;;159.70;47.22;;;;;;;;;;5058590;28;20123;-66
2022/01/12 00:53:29;;;;;;;130.77;42.83;;;;;;;;;;5053332;28;20080;-65
2022/01/12 00:55:55;;;;;;;145.38;44.35;;;;;;;;;;5049393;28;20116;-66
2022/01/12 00:58:21;;;;;;;132.10;44.08;;;;;;;;;;5057837;28;20438;-66
2022/01/12 01:00:47;;;;;;;142.52;45.15;;;;;;;;;;5047483;28;20052;-66
2022/01/12 01:03:13;;;;;;;145.10;44.47;;;;;;;;;;5044421;28;20013;-66
2022/01/12 01:05:39;;;;;;;140.15;44.58;;;;;;;;;;5062115;28;20036;-66
2022/01/12 01:08:06;;;;;;;141.35;43.42;;;;;;;;;;5057151;28;20024;-66
2022/01/12 01:13:04;;;;;;;146.15;44.70;;;;;;;;;;5051611;28;20024;-66
2022/01/12 01:15:55;;;;;;;135.50;45.88;;;;;;;;;;5063549;28;20072;-66
2022/01/12 01:26:37;;;;;;;137.23;46.38;;;;;;;;;;5053040;28;20517;-66
2022/01/12 01:29:04;;;;;;;146.68;46.58;;;;;;;;;;5057470;28;20475;-66
2022/01/12 01:31:33;;;;;;;153.85;46.92;;;;;;;;;;5055620;28;20041;-66
2022/01/12 01:34:05;;;;;;;150.73;46.83;;;;;;;;;;5050753;28;20037;-66
2022/01/12 01:36:32;;;;;;;140.38;45.92;;;;;;;;;;5057725;28;20057;-66
2022/01/12 01:38:58;;;;;;;164.25;49.40;;;;;;;;;;5058658;28;20020;-67
2022/01/12 01:41:24;;;;;;;146.85;51.35;;;;;;;;;;5059248;28;20037;-66
2022/01/12 01:54:56;;;;;;;145.10;47.17;;;;;;;;;;5044707;28;20473;-67
2022/01/12 01:57:24;;;;;;;144.88;47.97;;;;;;;;;;5045983;28;20025;-66
2022/01/12 01:59:50;;;;;;;150.15;47.42;;;;;;;;;;5040892;28;20026;-67
2022/01/12 02:02:16;;;;;;;148.18;49.80;;;;;;;;;;5040477;28;20562;-67
2022/01/12 02:04:42;;;;;;;149.52;48.80;;;;;;;;;;5037771;28;20021;-67
2022/01/12 02:07:08;;;;;;;151.38;49.15;;;;;;;;;;5044106;28;20073;-66
2022/01/12 02:09:37;;;;;;;148.50;47.40;;;;;;;;;;5055736;28;20079;-66
2022/01/12 02:12:03;;;;;;;152.90;48.90;;;;;;;;;;5035613;28;20501;-66
2022/01/12 02:14:29;;;;;;;168.32;51.17;;;;;;;;;;5047139;28;20041;-67
2022/01/12 02:17:09;;;;;;;160.38;49.40;;;;;;;;;;5061834;28;20127;-67
2022/01/12 02:39:58;;;;;;;165.90;49.47;;;;;;;;;;5041795;28;20040;-66
2022/01/12 02:42:26;;;;;;;186.95;52.70;;;;;;;;;;5046411;28;20494;-67
2022/01/12 02:55:50;;;;;;;236.70;56.38;;;;;;;;;;5059006;28;20051;-67
2022/01/12 02:58:16;;;;;;;190.80;54.13;;;;;;;;;;5056416;28;20024;-66
2022/01/12 03:03:35;;;;;;;210.90;56.60;;;;;;;;;;5047106;28;20489;-66
2022/01/12 03:06:04;;;;;;;195.82;57.15;;;;;;;;;;5047877;28;20029;-66
2022/01/12 03:08:36;;;;;;;211.90;56.03;;;;;;;;;;5053086;28;20114;-67
2022/01/12 03:11:02;;;;;;;222.50;56.53;;;;;;;;;;5052657;28;20037;-66
2022/01/12 03:13:28;;;;;;;203.90;56.55;;;;;;;;;;5048729;28;20029;-66
2022/01/12 03:15:55;;;;;;;190.07;55.80;;;;;;;;;;5058222;28;20128;-66
2022/01/12 03:18:21;;;;;;;222.38;56.53;;;;;;;;;;5050085;28;20031;-65
2022/01/12 03:20:47;;;;;;;208.35;57.50;;;;;;;;;;5056058;28;20052;-67
2022/01/12 03:23:16;;;;;;;205.93;55.42;;;;;;;;;;5045963;28;20064;-66
2022/01/12 03:25:43;;;;;;;238.98;59.13;;;;;;;;;;5055615;28;20033;-66
2022/01/12 03:28:09;;;;;;;223.68;59.53;;;;;;;;;;5048969;28;20074;-66
2022/01/12 03:30:48;;;;;;;214.13;55.53;;;;;;;;;;5060228;28;20528;-66
2022/01/12 03:36:25;;;;;;;233.07;59.05;;;;;;;;;;5053985;28;20048;-66
2022/01/12 03:38:41;;;;;;;231.05;57.33;;;;;;;;;;5064557;28;20631;-66
2022/01/12 03:41:07;;;;;;;297.02;61.25;;;;;;;;;;5059414;28;20025;-66
2022/01/12 03:43:33;;;;;;;287.20;61.13;;;;;;;;;;5051542;28;20410;-66
2022/01/12 03:45:59;;;;;;;339.75;63.95;;;;;;;;;;5052949;28;22237;-66
2022/01/12 03:48:25;;;;;;;293.90;60.63;;;;;;;;;;5049971;28;20039;-66
2022/01/12 03:50:54;;;;;;;320.20;64.53;;;;;;;;;;5057407;28;20174;-65
2022/01/12 03:53:20;;;;;;;334.77;63.00;;;;;;;;;;5050883;28;20033;-66
2022/01/12 03:55:46;;;;;;;370.55;64.47;;;;;;;;;;5053579;28;20471;-66
2022/01/12 03:58:13;;;;;;;323.55;61.85;;;;;;;;;;5057930;28;20040;-66
2022/01/12 04:00:39;;;;;;;337.77;63.28;;;;;;;;;;5063770;28;20029;-66
2022/01/12 04:03:07;;;;;;;330.13;61.65;;;;;;;;;;5046366;28;20025;-66
2022/01/12 04:08:21;;;;;;;453.45;69.72;;;;;;;;;;5047018;28;20540;-66
2022/01/12 04:10:51;;;;;;;330.08;64.00;;;;;;;;;;5062653;28;20083;-66
2022/01/12 04:13:18;;;;;;;362.50;63.47;;;;;;;;;;5061845;28;20068;-65
2022/01/12 04:15:48;;;;;;;425.45;65.18;;;;;;;;;;5065527;28;20305;-66
2022/01/12 04:18:14;;;;;;;436.87;67.77;;;;;;;;;;5054302;28;20044;-66
2022/01/12 04:20:49;;;;;;;366.30;65.30;;;;;;;;;;5049264;28;20104;-66
2022/01/12 04:23:17;;;;;;;499.00;69.63;;;;;;;;;;5053874;28;20026;-67
2022/01/12 04:25:43;;;;;;;419.83;64.63;;;;;;;;;;5065862;28;20028;-67
2022/01/12 04:28:09;;;;;;;584.92;70.57;;;;;;;;;;5058008;28;20028;-66
2022/01/12 04:30:35;;;;;;;409.45;64.57;;;;;;;;;;5060336;28;20115;-66
2022/01/12 04:33:01;;;;;;;482.35;68.97;;;;;;;;;;5047483;28;20108;-66
2022/01/12 04:35:32;;;;;;;449.48;65.07;;;;;;;;;;5061214;28;20086;-66
2022/01/12 04:37:58;;;;;;;430.77;66.10;;;;;;;;;;5047864;28;20478;-67
2022/01/12 04:40:25;;;;;;;603.38;68.80;;;;;;;;;;5055337;28;20050;-66
2022/01/12 04:42:53;;;;;;;636.70;76.18;;;;;;;;;;5045971;28;20080;-66
2022/01/12 04:45:37;;;;;;;564.00;70.80;;;;;;;;;;5063108;28;20037;-67
2022/01/12 04:48:32;;;;;;;660.03;81.13;;;;;;;;;;5048039;28;20025;-66
2022/01/12 04:50:57;;;;;;;810.97;81.03;;;;;;;;;;5049613;28;20144;-66
2022/01/12 04:53:23;;;;;;;782.00;79.25;;;;;;;;;;5055242;28;20028;-66
2022/01/12 04:55:50;;;;;;;801.08;81.95;;;;;;;;;;5061449;28;20033;-67
2022/01/12 04:58:20;;;;;;;629.40;71.03;;;;;;;;;;5058944;28;20028;-66
2022/01/12 05:00:47;;;;;;;928.92;81.78;;;;;;;;;;5057429;28;20463;-66
2022/01/12 05:13:54;;;;;;;1213.75;88.93;;;;;;;;;;5051303;28;20110;-67
2022/01/12 05:16:21;;;;;;;1085.75;88.78;;;;;;;;;;5051430;28;20033;-66
2022/01/12 05:18:48;;;;;;;1043.13;81.85;;;;;;;;;;5060581;28;20078;-66
2022/01/12 05:21:14;;;;;;;1076.95;89.97;;;;;;;;;;5059809;28;20052;-66
2022/01/12 05:23:40;;;;;;;862.17;80.78;;;;;;;;;;5052665;28;20490;-66
2022/01/12 05:26:07;;;;;;;936.40;78.18;;;;;;;;;;5063722;28;20120;-66
2022/01/12 05:28:33;;;;;;;1126.53;87.75;;;;;;;;;;5063527;28;20064;-66
2022/01/12 05:31:00;;;;;;;785.22;68.45;;;;;;;;;;5063193;28;21113;-66
2022/01/12 05:33:27;;;;;;;1053.93;78.55;;;;;;;;;;5055025;28;20056;-67
2022/01/12 05:35:54;;;;;;;1008.25;76.70;;;;;;;;;;5051341;28;20556;-67
2022/01/12 05:38:20;;;;;;;394.42;58.22;;;;;;;;;;5066241;28;20052;-66
2022/01/12 05:40:48;;;;;;;1193.75;85.38;;;;;;;;;;5057201;28;20053;-66
2022/01/12 05:43:16;;;;;;;877.63;80.35;;;;;;;;;;5063007;28;20032;-66
2022/01/12 05:45:44;;;;;;;1000.88;80.60;;;;;;;;;;5057186;28;20113;-66
2022/01/12 05:50:38;;;;;;;612.25;69.28;;;;;;;;;;5054723;28;20512;-66
2022/01/12 05:53:04;;;;;;;617.60;66.60;;;;;;;;;;5055380;28;20145;-66
2022/01/12 05:55:30;;;;;;;638.85;64.57;;;;;;;;;;5055133;28;20574;-67
2022/01/12 05:57:57;;;;;;;758.92;72.40;;;;;;;;;;5055030;28;20052;-66
2022/01/12 06:00:25;;;;;;;750.92;70.43;;;;;;;;;;5066110;28;20115;-66
2022/01/12 06:02:51;;;;;;;988.13;72.38;;;;;;;;;;5048706;28;20479;-67
2022/01/12 06:05:19;;;;;;;647.63;64.05;;;;;;;;;;5059700;28;20179;-67
2022/01/12 06:07:46;;;;;;;714.38;70.63;;;;;;;;;;5053522;28;20047;-66
2022/01/12 06:10:12;;;;;;;981.03;78.55;;;;;;;;;;5058625;28;20580;-66
2022/01/12 06:12:39;;;;;;;794.55;70.22;;;;;;;;;;5060242;28;20033;-67
2022/01/12 06:15:06;;;;;;;887.00;74.68;;;;;;;;;;5063440;28;20129;-67
2022/01/12 06:17:32;;;;;;;1038.10;79.85;;;;;;;;;;5048900;28;20082;-66
2022/01/12 06:19:58;;;;;;;684.60;64.55;;;;;;;;;;5053406;28;20498;-66
2022/01/12 06:22:24;;;;;;;1114.82;80.20;;;;;;;;;;5046764;28;20029;-66
2022/01/12 06:24:51;;;;;;;642.33;58.90;;;;;;;;;;5061791;28;20162;-66
2022/01/12 06:27:20;;;;;;;976.33;75.13;;;;;;;;;;5049904;28;20470;-66
2022/01/12 06:32:21;;;;;;;1056.35;82.65;;;;;;;;;;5049617;28;20167;-67
2022/01/12 06:34:47;;;;;;;1118.57;84.97;;;;;;;;;;5058251;28;20111;-66
2022/01/12 06:37:13;;;;;;;844.20;71.63;;;;;;;;;;5054381;28;20041;-66
2022/01/12 06:39:39;;;;;;;408.05;59.22;;;;;;;;;;5051477;28;20350;-66
2022/01/12 06:42:06;;;;;;;394.13;58.47;;;;;;;;;;5048358;28;20039;-67
2022/01/12 06:44:32;;;;;;;890.03;80.25;;;;;;;;;;5058233;28;20040;-66
2022/01/12 06:47:02;;;;;;;747.13;68.45;;;;;;;;;;5065623;28;20016;-66
2022/01/12 06:49:28;;;;;;;572.47;63.72;;;;;;;;;;5057666;28;20451;-66
2022/01/12 06:51:54;;;;;;;740.88;66.38;;;;;;;;;;5047686;28;20040;-67
2022/01/12 06:54:20;;;;;;;817.00;71.35;;;;;;;;;;5059326;28;20025;-67
2022/01/12 06:56:47;;;;;;;658.17;65.82;;;;;;;;;;5049562;28;20112;-66
2022/01/12 06:59:13;;;;;;;611.40;64.47;;;;;;;;;;5051155;28;20040;-67
2022/01/12 07:01:39;;;;;;;779.90;66.78;;;;;;;;;;5049070;28;20070;-66
2022/01/12 07:04:05;;;;;;;634.97;63.05;;;;;;;;;;5046267;28;20056;-66
2022/01/12 07:06:32;;;;;;;966.67;74.00;;;;;;;;;;5040548;28;20519;-67
2022/01/12 07:08:58;;;;;;;826.97;66.43;;;;;;;;;;5031509;28;20128;-67
2022/01/12 07:11:24;;;;;;;652.50;60.85;;;;;;;;;;5042317;28;20143;-67
2022/01/12 07:13:50;;;;;;;451.70;45.05;;;;;;;;;;5064338;28;20034;-68
2022/01/12 07:16:16;;;;;;;503.90;45.67;;;;;;;;;;5047862;28;20025;-67
2022/01/12 07:18:42;;;;;;;459.67;37.75;;;;;;;;;;5044527;28;20040;-67
2022/01/12 07:21:08;;;;;;;616.42;48.42;;;;;;;;;;5041008;28;20154;-67
2022/01/12 07:23:34;;;;;;;534.38;43.45;;;;;;;;;;5053599;28;20024;-67
2022/01/12 07:26:00;;;;;;;666.83;48.20;;;;;;;;;;5050016;28;20478;-66
2022/01/12 07:28:26;;;;;;;621.65;49.90;;;;;;;;;;5049990;28;20071;-66
2022/01/12 07:30:52;;;;;;;807.75;53.20;;;;;;;;;;5047351;28;20555;-66
2022/01/12 07:33:20;;;;;;;357.17;42.20;;;;;;;;;;5059044;28;20048;-67
2022/01/12 07:35:46;;;;;;;605.95;52.28;;;;;;;;;;5061288;28;20037;-67
2022/01/12 07:38:14;;;;;;;335.48;46.50;;;;;;;;;;5047491;28;20040;-67
2022/01/12 07:40:40;;;;;;;559.13;51.85;;;;;;;;;;5046290;28;20493;-66
2022/01/12 07:43:07;;;;;;;685.83;56.05;;;;;;;;;;5041597;28;20033;-66
2022/01/12 07:45:33;;;;;;;816.30;59.38;;;;;;;;;;5049015;28;20056;-66
2022/01/12 07:47:59;;;;;;;837.33;61.10;;;;;;;;;;5046831;28;20072;-67
2022/01/12 07:50:25;;;;;;;598.90;52.65;;;;;;;;;;5044920;28;20025;-67
2022/01/12 07:52:53;;;;;;;669.15;53.47;;;;;;;;;;5044901;28;20032;-66
2022/01/12 07:55:20;;;;;;;788.70;59.17;;;;;;;;;;5047724;28;20280;-67
2022/01/12 07:57:46;;;;;;;859.67;59.15;;;;;;;;;;5042956;28;20086;-66
2022/01/12 08:00:13;;;;;;;709.20;55.08;;;;;;;;;;5048589;28;20059;-67
2022/01/12 08:02:39;;;;;;;600.80;49.40;;;;;;;;;;5040770;28;20402;-67
2022/01/12 08:05:05;;;;;;;817.08;58.38;;;;;;;;;;5044606;28;20029;-67
2022/01/12 08:07:35;;;;;;;472.88;48.47;;;;;;;;;;5063206;28;20082;-67
2022/01/12 08:10:02;;;;;;;712.03;56.00;;;;;;;;;;5040172;28;20044;-68
2022/01/12 08:12:28;;;;;;;296.13;31.67;;;;;;;;;;5050073;28;20092;-68
2022/01/12 08:14:54;;;;;;;499.75;41.20;;;;;;;;;;5048603;28;20705;-68
2022/01/12 08:17:20;;;;;;;265.42;26.77;;;;;;;;;;5049729;28;20032;-67
2022/01/12 08:19:46;;;;;;;183.35;23.33;;;;;;;;;;5051819;28;20096;-67
2022/01/12 08:22:12;;;;;;;271.48;26.98;;;;;;;;;;5051710;28;20481;-67
2022/01/12 08:24:38;;;;;;;292.25;30.45;;;;;;;;;;5049581;28;20032;-67
2022/01/12 08:27:04;;;;;;;157.18;22.40;;;;;;;;;;5045636;28;20143;-67
2022/01/12 08:29:30;;;;;;;184.13;20.30;;;;;;;;;;5035627;28;20047;-67
2022/01/12 08:31:56;;;;;;;245.80;23.63;;;;;;;;;;5047077;28;20079;-66
2022/01/12 08:34:23;;;;;;;251.27;22.25;;;;;;;;;;5049375;28;20061;-67
2022/01/12 08:36:51;;;;;;;325.95;26.63;;;;;;;;;;5044568;28;20056;-67
2022/01/12 08:39:17;;;;;;;253.00;26.27;;;;;;;;;;5060791;28;20040;-66
2022/01/12 08:41:43;;;;;;;182.90;22.77;;;;;;;;;;5057359;28;20119;-66
2022/01/12 08:44:10;;;;;;;131.90;18.35;;;;;;;;;;5047806;28;20032;-67
2022/01/12 08:46:37;;;;;;;134.13;19.80;;;;;;;;;;5050568;28;20108;-66
2022/01/12 08:49:04;;;;;;;141.82;22.58;;;;;;;;;;5041209;28;20049;-69
2022/01/12 08:51:30;;;;;;;160.10;22.48;;;;;;;;;;5059718;28;20037;-67
2022/01/12 08:53:56;;;;;;;156.82;22.23;;;;;;;;;;5048782;28;20068;-67
2022/01/12 08:56:22;;;;;;;128.70;20.52;;;;;;;;;;5048311;28;20056;-66
2022/01/12 08:58:48;;;;;;;122.95;19.50;;;;;;;;;;5048576;28;20087;-66
2022/01/12 09:01:14;;;;;;;126.18;18.70;;;;;;;;;;5050761;28;20112;-66
2022/01/12 09:03:40;;;;;;;123.60;19.10;;;;;;;;;;5046747;28;20035;-66
2022/01/12 09:06:06;;;;;;;160.90;23.98;;;;;;;;;;5044006;28;20043;-66
2022/01/12 09:08:40;;;;;;;197.50;24.95;;;;;;;;;;5044331;28;20037;-66
2022/01/12 09:11:07;;;;;;;154.50;22.70;;;;;;;;;;5048740;28;20037;-67
2022/01/12 09:13:33;;;;;;;142.40;20.60;;;;;;;;;;5049302;28;20025;-68
2022/01/12 09:16:03;;;;;;;123.25;20.17;;;;;;;;;;5047897;28;20044;-67
2022/01/12 09:18:29;;;;;;;96.10;18.85;;;;;;;;;;5048490;28;20036;-67
2022/01/12 09:20:57;;;;;;;97.70;18.08;;;;;;;;;;5043760;28;20113;-67
2022/01/12 09:23:23;;;;;;;113.22;19.15;;;;;;;;;;5048969;28;20166;-67
2022/01/12 09:25:49;;;;;;;93.55;17.90;;;;;;;;;;5052888;28;20037;-67
2022/01/12 09:28:17;;;;;;;96.57;18.63;;;;;;;;;;5047016;28;20563;-69
2022/01/12 09:30:43;;;;;;;95.05;19.75;;;;;;;;;;5037836;28;20048;-67
2022/01/12 09:33:09;;;;;;;110.13;19.58;;;;;;;;;;5056409;28;20033;-67
2022/01/12 09:35:35;;;;;;;93.88;18.02;;;;;;;;;;5046224;28;20052;-67
2022/01/12 09:38:01;;;;;;;83.35;16.13;;;;;;;;;;5033585;28;20061;-66
2022/01/12 09:40:27;;;;;;;96.45;18.05;;;;;;;;;;5055572;28;20032;-66
2022/01/12 09:42:54;;;;;;;93.05;17.65;;;;;;;;;;5052648;28;20024;-67
2022/01/12 09:45:22;;;;;;;81.82;17.50;;;;;;;;;;5048157;28;20074;-66
2022/01/12 09:47:49;;;;;;;91.30;16.70;;;;;;;;;;5056501;28;20579;-67
2022/01/12 09:50:17;;;;;;;83.63;16.92;;;;;;;;;;5054661;28;20045;-67
2022/01/12 09:52:43;;;;;;;81.82;17.17;;;;;;;;;;5067319;28;20032;-67
2022/01/12 09:55:10;;;;;;;71.38;16.63;;;;;;;;;;5052912;28;20119;-68
2022/01/12 09:57:36;;;;;;;81.95;16.70;;;;;;;;;;5047858;28;20103;-66
2022/01/12 10:00:03;;;;;;;62.90;16.00;;;;;;;;;;5051845;28;20025;-66
2022/01/12 10:02:29;;;;;;;64.22;14.95;;;;;;;;;;5049077;28;20457;-66
2022/01/12 10:05:03;;;;;;;62.90;16.17;;;;;;;;;;5050750;28;20044;-66
2022/01/12 10:07:29;;;;;;;58.95;15.32;;;;;;;;;;5050847;28;21604;-66
2022/01/12 10:10:04;;;;;;;51.63;13.80;;;;;;;;;;5065859;28;20025;-69
2022/01/12 10:12:31;;;;;;;64.72;15.02;;;;;;;;;;5044858;28;20123;-66
2022/01/12 10:15:01;;;;;;;53.65;14.65;;;;;;;;;;5063720;28;20025;-68
2022/01/12 10:17:40;;;;;;;49.75;14.10;;;;;;;;;;5063611;28;20012;-66
2022/01/12 10:20:12;;;;;;;52.83;14.73;;;;;;;;;;5049252;28;20024;-67
2022/01/12 10:22:39;;;;;;;52.33;14.10;;;;;;;;;;5049271;28;20092;-67
2022/01/12 10:25:19;;;;;;;65.70;15.38;;;;;;;;;;5052328;28;20021;-66
2022/01/12 10:27:45;;;;;;;55.20;15.02;;;;;;;;;;5047563;28;20111;-67
2022/01/12 10:30:25;;;;;;;53.97;14.65;;;;;;;;;;5056198;28;20086;-65
2022/01/12 10:33:01;;;;;;;56.45;16.60;;;;;;;;;;5050885;28;20029;-68
2022/01/12 10:35:29;;;;;;;58.75;18.02;;;;;;;;;;5050478;28;20617;-67
2022/01/12 10:38:05;;;;;;;58.55;17.35;;;;;;;;;;5046905;28;20136;-66
2022/01/12 10:40:31;;;;;;;51.45;15.02;;;;;;;;;;5052002;28;20057;-66
2022/01/12 10:42:57;;;;;;;46.88;15.63;;;;;;;;;;5052312;28;20033;-66
2022/01/12 10:45:23;;;;;;;42.03;14.13;;;;;;;;;;5052305;28;20029;-65
2022/01/12 10:47:49;;;;;;;51.28;16.05;;;;;;;;;;5036204;28;20040;-66
2022/01/12 10:50:15;;;;;;;53.55;18.13;;;;;;;;;;5044267;28;20401;-66
2022/01/12 10:52:51;;;;;;;46.45;15.27;;;;;;;;;;5051544;28;20089;-67
2022/01/12 10:55:17;;;;;;;46.88;15.02;;;;;;;;;;5051271;28;20059;-66
2022/01/12 10:57:44;;;;;;;46.55;16.48;;;;;;;;;;5052767;28;20025;-66
2022/01/12 11:00:21;;;;;;;42.15;14.60;;;;;;;;;;5052059;28;20039;-66
2022/01/12 11:02:47;;;;;;;43.10;13.50;;;;;;;;;;5047062;28;20017;-66
2022/01/12 11:05:13;;;;;;;35.33;13.70;;;;;;;;;;5048724;28;20021;-66
2022/01/12 11:07:39;;;;;;;42.15;12.82;;;;;;;;;;5048281;28;20490;-66
2022/01/12 11:10:07;;;;;;;34.70;12.70;;;;;;;;;;5061991;28;20492;-66
2022/01/12 11:12:35;;;;;;;43.22;13.07;;;;;;;;;;5049411;28;20021;-65
2022/01/12 11:15:02;;;;;;;32.83;11.32;;;;;;;;;;5055074;28;20028;-66
2022/01/12 11:17:28;;;;;;;32.53;12.10;;;;;;;;;;5052963;28;20115;-66
2022/01/12 11:20:12;;;;;;;38.67;12.50;;;;;;;;;;5059232;28;20029;-65
2022/01/12 11:22:38;;;;;;;40.47;13.80;;;;;;;;;;5047309;28;20024;-65
2022/01/12 11:25:05;;;;;;;43.65;13.60;;;;;;;;;;5053059;28;20097;-66
2022/01/12 11:27:30;;;;;;;46.05;15.48;;;;;;;;;;5057014;28;20447;-66
2022/01/12 11:29:59;;;;;;;50.45;14.70;;;;;;;;;;5064719;28;20025;-66
2022/01/12 11:32:25;;;;;;;43.95;15.77;;;;;;;;;;5055877;28;20040;-66
2022/01/12 11:35:04;;;;;;;40.75;14.32;;;;;;;;;;5044638;28;20079;-66
2022/01/12 11:37:30;;;;;;;52.75;18.27;;;;;;;;;;5048886;28;20033;-66
2022/01/12 11:40:07;;;;;;;60.75;16.20;;;;;;;;;;5048534;28;20023;-66
2022/01/12 11:42:36;;;;;;;48.53;16.33;;;;;;;;;;5047083;28;20033;-66
2022/01/12 11:45:03;;;;;;;53.72;18.58;;;;;;;;;;5051927;28;20028;-65
2022/01/12 11:47:31;;;;;;;46.03;15.95;;;;;;;;;;5043106;28;20025;-66
2022/01/12 11:49:57;;;;;;;43.88;16.05;;;;;;;;;;5045319;28;20033;-65
2022/01/12 11:52:26;;;;;;;52.63;17.48;;;;;;;;;;5037479;28;20440;-66
2022/01/12 11:54:53;;;;;;;49.10;17.85;;;;;;;;;;5047121;28;20025;-65
2022/01/12 11:57:30;;;;;;;58.42;19.75;;;;;;;;;;5046707;28;20025;-66
2022/01/12 11:59:56;;;;;;;50.38;17.65;;;;;;;;;;5053416;28;20498;-65
2022/01/12 12:02:36;;;;;;;58.63;20.08;;;;;;;;;;5038206;28;20028;-65
2022/01/12 12:05:07;;;;;;;59.45;21.98;;;;;;;;;;5048803;28;20021;-66
2022/01/12 12:07:33;;;;;;;;;;;;;;;;;;5057967;28;20039;-64
2022/01/12 12:10:09;;;;;;;59.15;22.77;;;;;;;;;;5047502;28;20360;-65
2022/01/12 12:12:36;;;;;;;59.50;22.45;;;;;;;;;;5041559;28;20032;-66
2022/01/12 12:15:04;;;;;;;58.92;22.73;;;;;;;;;;5047411;28;20045;-65
2022/01/12 12:17:31;;;;;;;60.83;22.42;;;;;;;;;;5040247;28;20029;-65
2022/01/12 12:19:58;;;;;;;60.17;24.75;;;;;;;;;;5045161;28;20570;-65
2022/01/12 12:22:28;;;;;;;67.43;24.55;;;;;;;;;;5039941;28;20032;-65
2022/01/12 12:25:03;;;;;;;72.25;26.70;;;;;;;;;;5046947;28;20112;-66
2022/01/12 12:27:30;;;;;;;53.70;22.05;;;;;;;;;;5036448;28;20033;-64
2022/01/12 12:29:56;;;;;;;68.97;26.02;;;;;;;;;;5030121;28;20086;-65
2022/01/12 12:32:33;;;;;;;66.22;27.95;;;;;;;;;;5052248;28;20040;-66
2022/01/12 12:35:00;;;;;;;69.15;27.60;;;;;;;;;;5055632;28;20144;-64
2022/01/12 12:37:33;;;;;;;75.03;26.30;;;;;;;;;;5045563;28;20151;-65
2022/01/12 12:39:59;;;;;;;66.72;26.05;;;;;;;;;;5041488;28;21680;-68
2022/01/12 12:42:25;;;;;;;79.97;30.92;;;;;;;;;;5039702;28;20021;-64
2022/01/12 12:45:02;;;;;;;71.82;27.35;;;;;;;;;;5055153;28;20025;-64
2022/01/12 12:47:28;;;;;;;72.47;30.83;;;;;;;;;;5037758;28;20112;-64
2022/01/12 12:49:56;;;;;;;75.43;29.65;;;;;;;;;;5048334;28;21811;-65
2022/01/12 12:52:35;;;;;;;74.95;29.50;;;;;;;;;;5042366;28;20044;-65
2022/01/12 12:55:04;;;;;;;75.93;29.40;;;;;;;;;;5045635;28;20021;-65
2022/01/12 12:57:30;;;;;;;76.50;29.27;;;;;;;;;;5047205;28;20033;-65
2022/01/12 13:00:11;;;;;;;69.68;24.95;;;;;;;;;;5046163;28;20029;-65
2022/01/12 13:02:39;;;;;;;71.22;25.70;;;;;;;;;;5035978;28;20548;-65
2022/01/12 13:05:06;;;;;;;73.57;29.05;;;;;;;;;;5042183;28;20262;-65
2022/01/12 13:07:36;;;;;;;72.50;27.50;;;;;;;;;;5037046;28;20057;-66
2022/01/12 13:10:06;;;;;;;71.60;23.02;;;;;;;;;;5064385;28;20024;-66
2022/01/12 13:12:39;;;;;;;67.00;23.27;;;;;;;;;;5049433;28;20025;-65
2022/01/12 13:15:07;;;;;;;71.32;24.52;;;;;;;;;;5040775;28;20033;-65
2022/01/12 13:17:33;;;;;;;66.13;24.27;;;;;;;;;;5044530;28;20036;-65
2022/01/12 13:22:25;;;;;;;66.57;23.70;;;;;;;;;;5038325;28;20041;-67
2022/01/12 13:24:51;;;;;;;71.63;26.38;;;;;;;;;;5042125;28;20061;-65
2022/01/12 13:27:18;;;;;;;75.00;27.33;;;;;;;;;;5032671;28;20060;-65
2022/01/12 13:29:50;;;;;;;80.80;26.25;;;;;;;;;;5050757;28;20033;-65
2022/01/12 13:32:17;;;;;;;90.82;26.35;;;;;;;;;;5042045;28;20037;-65
2022/01/12 13:34:53;;;;;;;76.88;23.83;;;;;;;;;;5050820;28;20162;-65
2022/01/12 13:37:19;;;;;;;83.03;22.98;;;;;;;;;;5048721;28;20092;-66
2022/01/12 13:39:45;;;;;;;83.78;24.27;;;;;;;;;;5059511;28;20494;-65
2022/01/12 13:42:11;;;;;;;69.78;23.35;;;;;;;;;;5065148;28;20021;-65
2022/01/12 13:44:38;;;;;;;77.97;23.52;;;;;;;;;;5047412;28;20526;-66
2022/01/12 13:47:11;;;;;;;69.68;23.00;;;;;;;;;;5041789;28;20131;-65
2022/01/12 13:49:37;;;;;;;69.78;23.48;;;;;;;;;;5043144;28;20049;-65
2022/01/12 13:52:08;;;;;;;86.93;23.67;;;;;;;;;;5055970;28;20052;-65
2022/01/12 13:54:48;;;;;;;78.78;28.15;;;;;;;;;;5039290;28;20477;-64
2022/01/12 13:57:17;;;;;;;84.53;32.58;;;;;;;;;;5034176;28;20029;-64
2022/01/12 13:59:53;;;;;;;88.25;27.42;;;;;;;;;;5051247;28;20076;-65
2022/01/12 14:02:22;;;;;;;83.10;25.50;;;;;;;;;;5049664;28;20028;-66
2022/01/12 14:05:05;;;;;;;96.97;29.92;;;;;;;;;;5048545;28;20033;-65
2022/01/12 14:07:36;;;;;;;91.28;26.42;;;;;;;;;;5046645;28;20037;-64
2022/01/12 14:10:03;;;;;;;70.53;22.83;;;;;;;;;;5052136;28;20131;-66
2022/01/12 14:12:29;;;;;;;93.15;24.58;;;;;;;;;;5045184;28;20390;-65
2022/01/12 14:14:57;;;;;;;73.13;22.73;;;;;;;;;;5063365;28;20060;-67
2022/01/12 14:17:29;;;;;;;81.18;26.55;;;;;;;;;;5044589;28;20029;-67
2022/01/12 14:20:22;;;;;;;87.38;26.08;;;;;;;;;;5049094;28;20039;-66
2022/01/12 14:22:55;;;;;;;90.95;24.45;;;;;;;;;;5049149;28;20028;-65
2022/01/12 14:25:33;;;;;;;81.53;25.13;;;;;;;;;;5033798;28;20040;-65
2022/01/12 14:27:59;;;;;;;111.18;26.08;;;;;;;;;;5039622;28;20562;-65
2022/01/12 14:30:25;;;;;;;91.75;25.10;;;;;;;;;;5038967;28;20167;-66
2022/01/12 14:32:51;;;;;;;82.53;21.25;;;;;;;;;;5054320;28;20491;-65
2022/01/12 14:35:20;;;;;;;86.22;23.02;;;;;;;;;;5048157;28;20033;-67
2022/01/12 14:37:46;;;;;;;191.60;93.90;;;;;;;;;;5048328;28;20044;-65
2022/01/12 14:40:12;;;;;;;118.57;37.05;;;;;;;;;;5055093;28;20036;-64
2022/01/12 14:42:45;;;;;;;98.35;28.27;;;;;;;;;;5050732;28;20028;-66
2022/01/12 14:45:16;;;;;;;105.20;25.35;;;;;;;;;;5047930;28;20021;-65
2022/01/12 14:47:43;;;;;;;83.90;21.92;;;;;;;;;;5051826;28;20047;-65
2022/01/12 14:50:09;;;;;;;86.60;22.65;;;;;;;;;;5053594;28;20041;-65
2022/01/12 14:52:36;;;;;;;85.13;22.98;;;;;;;;;;5047123;28;20470;-65
2022/01/12 14:55:03;;;;;;;115.97;23.02;;;;;;;;;;5041110;28;20475;-65
2022/01/12 14:57:29;;;;;;;107.88;23.63;;;;;;;;;;5058561;28;20025;-65
2022/01/12 14:59:55;;;;;;;104.53;22.17;;;;;;;;;;5053250;28;20020;-66
2022/01/12 15:02:22;;;;;;;104.03;22.92;;;;;;;;;;5054851;28;20021;-65
2022/01/12 15:04:48;;;;;;;94.13;22.10;;;;;;;;;;5055497;28;20112;-65
2022/01/12 15:07:14;;;;;;;88.93;22.55;;;;;;;;;;5039711;28;20048;-64
2022/01/12 15:09:42;;;;;;;94.22;21.10;;;;;;;;;;5048747;28;20079;-65
2022/01/12 15:12:14;;;;;;;86.93;22.17;;;;;;;;;;5046269;28;20068;-65
2022/01/12 15:14:46;;;;;;;84.20;21.15;;;;;;;;;;5057301;28;20029;-65
2022/01/12 15:17:12;;;;;;;82.85;23.75;;;;;;;;;;5046056;28;20041;-65
2022/01/12 15:19:40;;;;;;;95.13;26.02;;;;;;;;;;5061638;28;20036;-65
2022/01/12 15:22:06;;;;;;;103.72;25.15;;;;;;;;;;5050069;28;20033;-65
2022/01/12 15:24:32;;;;;;;91.85;23.83;;;;;;;;;;5055303;28;20037;-66
2022/01/12 15:26:58;;;;;;;91.85;23.30;;;;;;;;;;5038999;28;20103;-65
2022/01/12 15:29:24;;;;;;;99.45;25.90;;;;;;;;;;5042729;28;20025;-65
2022/01/12 15:31:50;;;;;;;85.32;22.58;;;;;;;;;;5042444;28;20092;-66
2022/01/12 15:34:16;;;;;;;87.82;21.77;;;;;;;;;;5045506;28;20474;-65
2022/01/12 15:36:42;;;;;;;72.72;20.73;;;;;;;;;;5044463;28;20029;-65
2022/01/12 15:39:08;;;;;;;87.30;21.40;;;;;;;;;;5047056;28;20521;-65